createdAt,value
2018-07-30T00:00:52.680Z,82.10
2018-07-30T00:03:20.303Z,82.80
2018-07-30T00:05:48.053Z,83.50
2018-07-30T00:08:15.690Z,83.60
2018-07-30T00:10:43.269Z,84.70
2018-07-30T00:13:10.870Z,85.90
2018-07-30T00:15:38.454Z,85.50
2018-07-30T00:18:06.226Z,85.30
2018-07-30T00:20:33.826Z,85.60
2018-07-30T00:23:01.428Z,85.80
2018-07-30T00:25:29.025Z,85.90
2018-07-30T00:27:57.006Z,86.30
2018-07-30T00:30:24.670Z,86.40
2018-07-30T00:32:52.239Z,87.00
2018-07-30T00:35:19.842Z,88.10
2018-07-30T00:37:47.594Z,88.10
2018-07-30T00:40:16.466Z,88.50
2018-07-30T00:42:46.496Z,89.00
2018-07-30T00:45:14.941Z,89.20
2018-07-30T00:47:42.753Z,90.10
2018-07-30T00:52:38.073Z,90.30
2018-07-30T00:55:05.758Z,90.40
2018-07-30T00:57:33.579Z,90.60
2018-07-30T01:00:01.225Z,90.70
2018-07-30T01:02:28.864Z,90.80
2018-07-30T01:04:56.621Z,91.10
2018-07-30T01:07:24.261Z,91.20
2018-07-30T01:09:52.257Z,91.40
2018-07-30T01:12:19.881Z,91.60
2018-07-30T01:14:47.423Z,91.80
2018-07-30T01:17:15.565Z,92.00
2018-07-30T01:19:43.173Z,92.50
2018-07-30T01:24:38.273Z,92.60
2018-07-30T01:27:05.923Z,92.90
2018-07-30T01:29:33.502Z,93.10
2018-07-30T01:32:01.167Z,93.40
2018-07-30T01:34:28.780Z,93.70
2018-07-30T01:36:56.326Z,94.00
2018-07-30T01:39:24.006Z,94.30
2018-07-30T01:41:51.637Z,94.70
2018-07-30T01:44:19.188Z,95.00
2018-07-30T01:46:46.799Z,95.30
2018-07-30T01:49:14.406Z,95.80
2018-07-30T01:51:42.309Z,96.00
2018-07-30T01:54:09.894Z,96.40
2018-07-30T01:56:37.436Z,96.70
2018-07-30T01:59:05.038Z,97.10
2018-07-30T02:01:32.618Z,97.50
2018-07-30T02:04:01.286Z,98.00
2018-07-30T02:06:28.918Z,98.40
2018-07-30T02:08:56.476Z,98.70
2018-07-30T02:11:26.999Z,99.00
2018-07-30T02:13:54.603Z,99.10
2018-07-30T02:16:22.157Z,99.30
2018-07-30T02:18:49.771Z,99.50
2018-07-30T02:21:17.318Z,99.70
2018-07-30T02:23:44.961Z,99.80
2018-07-30T02:26:12.589Z,99.90
2018-07-30T02:28:40.171Z,99.90
2018-07-30T02:31:07.763Z,99.90
2018-07-30T02:33:35.377Z,99.90
2018-07-30T02:36:03.024Z,99.90
2018-07-30T02:38:30.989Z,99.90
2018-07-30T02:40:59.025Z,99.90
2018-07-30T02:43:26.652Z,99.90
2018-07-30T02:45:54.308Z,99.90
2018-07-30T02:48:22.065Z,99.90
2018-07-30T02:50:49.721Z,99.90
2018-07-30T02:53:17.478Z,99.90
2018-07-30T02:55:45.104Z,99.90
2018-07-30T02:58:12.778Z,99.90
2018-07-30T03:00:40.341Z,99.90
2018-07-30T03:03:10.150Z,99.90
2018-07-30T03:05:38.461Z,99.90
2018-07-30T03:08:06.572Z,99.90
2018-07-30T03:10:34.233Z,99.90
2018-07-30T03:13:01.847Z,99.90
2018-07-30T03:15:29.435Z,99.90
2018-07-30T03:17:57.033Z,99.90
2018-07-30T03:20:24.679Z,99.90
2018-07-30T03:22:52.239Z,99.90
2018-07-30T03:25:20.092Z,99.90
2018-07-30T03:27:47.653Z,99.90
2018-07-30T03:30:15.251Z,99.90
2018-07-30T03:32:42.891Z,99.90
2018-07-30T03:35:10.577Z,99.90
2018-07-30T03:37:38.203Z,99.90
2018-07-30T03:40:06.249Z,99.90
2018-07-30T03:42:33.889Z,99.90
2018-07-30T03:45:01.573Z,99.90
2018-07-30T03:47:29.270Z,99.90
2018-07-30T03:49:56.901Z,99.90
2018-07-30T03:52:24.505Z,99.90
2018-07-30T03:54:52.800Z,99.90
2018-07-30T03:57:20.641Z,99.90
2018-07-30T03:59:48.261Z,99.90
2018-07-30T04:02:15.900Z,99.90
2018-07-30T04:04:43.451Z,99.90
2018-07-30T04:07:11.081Z,99.90
2018-07-30T04:12:06.490Z,99.90
2018-07-30T04:14:34.022Z,99.90
2018-07-30T04:17:01.650Z,99.90
2018-07-30T04:19:29.313Z,99.90
2018-07-30T04:21:57.136Z,99.90
2018-07-30T04:24:24.740Z,99.90
2018-07-30T04:26:52.319Z,99.90
2018-07-30T04:29:19.930Z,99.90
2018-07-30T04:31:47.549Z,99.90
2018-07-30T04:34:15.077Z,99.90
2018-07-30T04:36:42.721Z,99.90
2018-07-30T04:39:12.287Z,99.90
2018-07-30T04:41:39.898Z,99.90
2018-07-30T04:44:07.636Z,99.90
2018-07-30T04:46:35.838Z,99.90
2018-07-30T04:49:03.503Z,99.90
2018-07-30T04:51:31.251Z,99.90
2018-07-30T04:56:26.386Z,99.90
2018-07-30T04:58:53.960Z,99.90
2018-07-30T05:01:21.607Z,99.90
2018-07-30T05:03:49.417Z,99.90
2018-07-30T05:06:16.990Z,99.90
2018-07-30T05:08:44.681Z,96.30
2018-07-30T05:11:12.262Z,91.90
2018-07-30T05:13:39.910Z,84.20
2018-07-30T05:16:07.550Z,76.60
2018-07-30T05:18:35.245Z,70.80
2018-07-30T05:21:02.776Z,66.40
2018-07-30T05:23:30.381Z,62.90
2018-07-30T05:25:58.031Z,59.20
2018-07-30T05:28:25.605Z,57.00
2018-07-30T05:30:53.203Z,54.90
2018-07-30T05:33:20.785Z,53.00
2018-07-30T05:35:48.401Z,51.40
2018-07-30T05:40:43.599Z,49.20
2018-07-30T05:43:11.209Z,48.40
2018-07-30T05:45:39.013Z,47.50
2018-07-30T05:48:06.967Z,46.80
2018-07-30T05:50:34.534Z,46.10
2018-07-30T05:53:02.246Z,45.80
2018-07-30T05:55:29.795Z,45.40
2018-07-30T05:57:57.441Z,45.80
2018-07-30T06:00:25.232Z,46.40
2018-07-30T06:02:53.252Z,47.20
2018-07-30T06:05:20.870Z,47.80
2018-07-30T06:07:48.472Z,48.60
2018-07-30T06:12:43.539Z,50.10
2018-07-30T06:15:11.163Z,49.80
2018-07-30T06:17:38.772Z,50.50
2018-07-30T06:20:09.053Z,51.00
2018-07-30T06:22:37.075Z,50.90
2018-07-30T06:25:05.169Z,51.40
2018-07-30T06:27:32.833Z,51.70
2018-07-30T06:30:00.402Z,51.70
2018-07-30T06:32:28.021Z,52.10
2018-07-30T06:34:55.811Z,51.60
2018-07-30T06:37:23.420Z,51.60
2018-07-30T06:39:50.965Z,51.50
2018-07-30T06:42:18.578Z,51.90
2018-07-30T06:44:46.142Z,51.50
2018-07-30T06:47:14.324Z,50.90
2018-07-30T06:49:42.101Z,50.70
2018-07-30T06:52:09.739Z,50.30
2018-07-30T06:54:37.323Z,49.50
2018-07-30T06:57:04.943Z,49.10
2018-07-30T06:59:32.521Z,48.70
2018-07-30T07:02:00.164Z,48.20
2018-07-30T07:04:27.685Z,48.10
2018-07-30T07:06:55.326Z,47.00
2018-07-30T07:09:22.985Z,46.40
2018-07-30T07:11:50.619Z,44.60
2018-07-30T07:14:18.275Z,44.40
2018-07-30T07:16:45.940Z,44.20
2018-07-30T07:19:13.457Z,44.50
2018-07-30T07:21:41.151Z,44.70
2018-07-30T07:24:08.649Z,43.90
2018-07-30T07:26:36.279Z,42.90
2018-07-30T07:29:03.861Z,42.20
2018-07-30T07:31:31.565Z,40.50
2018-07-30T07:33:59.146Z,41.00
2018-07-30T07:36:26.841Z,39.60
2018-07-30T07:38:54.427Z,39.30
2018-07-30T07:41:22.012Z,39.70
2018-07-30T07:43:49.593Z,39.60
2018-07-30T07:46:17.179Z,38.90
2018-07-30T07:48:44.773Z,37.90
2018-07-30T07:51:12.452Z,37.00
2018-07-30T07:53:40.110Z,36.40
2018-07-30T07:56:07.881Z,35.80
2018-07-30T07:58:35.510Z,34.30
2018-07-30T08:01:03.190Z,33.60
2018-07-30T08:03:30.787Z,31.70
2018-07-30T08:05:58.508Z,31.20
2018-07-30T08:08:26.113Z,30.80
2018-07-30T08:10:53.721Z,30.00
2018-07-30T08:13:21.292Z,29.70
2018-07-30T08:15:48.874Z,29.50
2018-07-30T08:18:16.430Z,29.10
2018-07-30T08:20:44.198Z,29.10
2018-07-30T08:23:11.955Z,29.20
2018-07-30T08:25:39.675Z,28.70
2018-07-30T08:28:07.363Z,28.90
2018-07-30T08:33:02.563Z,28.20
2018-07-30T08:35:30.141Z,27.50
2018-07-30T08:37:57.711Z,27.00
2018-07-30T08:40:25.310Z,26.50
2018-07-30T08:42:52.918Z,25.70
2018-07-30T08:45:20.537Z,24.90
2018-07-30T08:47:48.647Z,24.70
2018-07-30T08:50:16.317Z,24.50
2018-07-30T08:52:43.881Z,24.70
2018-07-30T08:55:11.471Z,24.30
2018-07-30T08:57:39.066Z,24.60
2018-07-30T09:00:08.005Z,25.20
2018-07-30T09:02:35.669Z,25.60
2018-07-30T09:05:03.338Z,26.80
2018-07-30T09:07:30.938Z,28.00
2018-07-30T09:09:58.552Z,29.50
2018-07-30T09:12:26.228Z,30.50
2018-07-30T09:14:53.746Z,32.10
2018-07-30T09:17:22.208Z,33.90
2018-07-30T09:19:49.848Z,34.80
2018-07-30T09:22:17.474Z,36.20
2018-07-30T09:24:45.054Z,37.30
2018-07-30T09:27:12.692Z,37.50
2018-07-30T09:29:40.185Z,37.70
2018-07-30T09:32:08.306Z,38.40
2018-07-30T09:34:36.051Z,39.00
2018-07-30T09:37:03.682Z,39.60
2018-07-30T09:39:31.240Z,39.60
2018-07-30T09:41:58.885Z,40.40
2018-07-30T09:44:26.451Z,39.10
2018-07-30T09:46:54.310Z,39.20
2018-07-30T09:49:22.017Z,39.90
2018-07-30T09:51:49.648Z,40.00
2018-07-30T09:54:17.266Z,39.50
2018-07-30T09:56:44.898Z,40.00
2018-07-30T09:59:12.661Z,39.80
2018-07-30T10:01:40.281Z,40.20
2018-07-30T10:04:08.161Z,40.20
2018-07-30T10:06:35.718Z,39.60
2018-07-30T10:09:07.747Z,40.20
2018-07-30T10:11:35.366Z,40.20
2018-07-30T10:14:03.270Z,39.90
2018-07-30T10:16:30.856Z,40.20
2018-07-30T10:18:58.403Z,41.00
2018-07-30T10:21:26.094Z,41.00
2018-07-30T10:23:53.706Z,40.70
2018-07-30T10:26:21.286Z,40.00
2018-07-30T10:28:48.830Z,40.00
2018-07-30T10:31:16.756Z,40.50
2018-07-30T10:33:44.348Z,40.50
2018-07-30T10:36:12.000Z,40.80
2018-07-30T10:38:39.607Z,40.40
2018-07-30T10:41:07.204Z,40.20
2018-07-30T10:43:34.728Z,40.40
2018-07-30T10:46:02.387Z,41.40
2018-07-30T10:48:29.912Z,41.30
2018-07-30T10:50:57.831Z,41.30
2018-07-30T10:53:25.397Z,41.00
2018-07-30T10:55:53.089Z,40.80
2018-07-30T10:58:20.626Z,40.50
2018-07-30T11:00:48.269Z,40.50
2018-07-30T11:03:15.940Z,40.90
2018-07-30T11:05:43.512Z,40.30
2018-07-30T11:08:11.155Z,39.30
2018-07-30T11:10:38.752Z,39.90
2018-07-30T11:13:06.350Z,40.20
2018-07-30T11:15:33.992Z,40.30
2018-07-30T11:18:01.705Z,39.50
2018-07-30T11:20:29.263Z,39.30
2018-07-30T11:22:56.814Z,38.70
2018-07-30T11:25:24.550Z,38.90
2018-07-30T11:27:52.141Z,38.90
2018-07-30T11:30:19.696Z,38.40
2018-07-30T11:32:47.583Z,38.20
2018-07-30T11:35:15.161Z,39.00
2018-07-30T11:37:42.778Z,40.60
2018-07-30T11:40:10.389Z,39.70
2018-07-30T11:42:38.018Z,38.60
2018-07-30T11:45:05.649Z,38.10
2018-07-30T11:47:33.231Z,38.60
2018-07-30T11:50:01.206Z,39.00
2018-07-30T11:52:28.834Z,39.20
2018-07-30T11:54:56.439Z,38.80
2018-07-30T11:57:23.971Z,38.90
2018-07-30T11:59:51.737Z,39.00
2018-07-30T12:02:19.399Z,38.70
2018-07-30T12:04:46.969Z,38.10
2018-07-30T12:07:14.561Z,38.00
2018-07-30T12:09:42.252Z,38.00
2018-07-30T12:12:09.870Z,37.80
2018-07-30T12:14:37.501Z,37.60
2018-07-30T12:17:05.074Z,38.50
2018-07-30T12:19:32.623Z,37.90
2018-07-30T12:22:00.301Z,36.50
2018-07-30T12:24:27.873Z,37.00
2018-07-30T12:26:55.452Z,37.30
2018-07-30T12:29:23.014Z,38.50
2018-07-30T12:31:50.608Z,36.40
2018-07-30T12:34:18.187Z,36.60
2018-07-30T12:36:45.827Z,36.30
2018-07-30T12:39:13.361Z,35.90
2018-07-30T12:41:41.024Z,36.60
2018-07-30T12:44:08.622Z,36.40
2018-07-30T12:46:36.208Z,36.90
2018-07-30T12:49:04.411Z,36.40
2018-07-30T12:51:31.997Z,36.50
2018-07-30T12:53:59.568Z,37.20
2018-07-30T12:56:27.190Z,37.50
2018-07-30T12:58:54.765Z,37.10
2018-07-30T13:01:22.397Z,36.70
2018-07-30T13:03:49.982Z,35.90
2018-07-30T13:06:18.178Z,35.50
2018-07-30T13:08:45.758Z,35.60
2018-07-30T13:13:40.942Z,35.70
2018-07-30T13:16:08.526Z,36.00
2018-07-30T13:18:36.084Z,36.00
2018-07-30T13:21:03.723Z,35.80
2018-07-30T13:23:31.290Z,35.80
2018-07-30T13:25:58.833Z,35.60
2018-07-30T13:28:33.165Z,35.50
2018-07-30T13:31:00.964Z,35.70
2018-07-30T13:33:28.533Z,36.10
2018-07-30T13:35:56.163Z,36.10
2018-07-30T13:38:23.761Z,36.90
2018-07-30T13:40:51.423Z,34.60
2018-07-30T13:43:19.031Z,34.60
2018-07-30T13:45:46.611Z,34.80
2018-07-30T13:48:14.224Z,34.10
2018-07-30T13:50:41.866Z,33.80
2018-07-30T13:53:09.516Z,35.20
2018-07-30T13:55:37.089Z,33.90
2018-07-30T13:58:04.734Z,33.80
2018-07-30T14:00:32.285Z,33.80
2018-07-30T14:02:59.953Z,34.10
2018-07-30T14:05:27.659Z,34.70
2018-07-30T14:07:55.203Z,35.10
2018-07-30T14:10:22.858Z,35.50
2018-07-30T14:12:50.481Z,36.80
2018-07-30T14:15:18.113Z,35.30
2018-07-30T14:17:45.659Z,34.60
2018-07-30T14:20:13.454Z,34.10
2018-07-30T14:22:41.057Z,34.40
2018-07-30T14:25:08.693Z,33.90
2018-07-30T14:27:36.308Z,34.60
2018-07-30T14:30:05.402Z,34.20
2018-07-30T14:32:32.990Z,33.50
2018-07-30T14:35:00.607Z,33.40
2018-07-30T14:37:28.275Z,33.90
2018-07-30T14:39:55.836Z,34.10
2018-07-30T14:42:23.525Z,35.10
2018-07-30T14:44:51.094Z,34.70
2018-07-30T14:47:18.666Z,34.70
2018-07-30T14:49:46.246Z,34.40
2018-07-30T14:52:13.878Z,34.70
2018-07-30T14:54:41.442Z,34.50
2018-07-30T14:57:09.112Z,35.40
2018-07-30T14:59:36.780Z,33.70
2018-07-30T15:02:04.409Z,34.60
2018-07-30T15:04:32.086Z,33.90
2018-07-30T15:06:59.720Z,34.00
2018-07-30T15:09:27.340Z,33.70
2018-07-30T15:11:55.064Z,34.30
2018-07-30T15:14:22.600Z,35.30
2018-07-30T15:19:17.795Z,35.00
2018-07-30T15:21:45.446Z,35.40
2018-07-30T15:24:12.985Z,35.00
2018-07-30T15:26:40.657Z,34.60
2018-07-30T15:29:08.272Z,35.20
2018-07-30T15:31:35.832Z,34.70
2018-07-30T15:34:03.519Z,34.80
2018-07-30T15:36:31.119Z,34.90
2018-07-30T15:38:58.734Z,35.20
2018-07-30T15:41:26.388Z,34.90
2018-07-30T15:43:54.021Z,35.30
2018-07-30T15:46:21.629Z,35.40
2018-07-30T15:48:49.240Z,35.40
2018-07-30T15:51:16.855Z,35.70
2018-07-30T15:53:44.497Z,36.00
2018-07-30T15:56:12.179Z,36.80
2018-07-30T15:58:39.728Z,37.10
2018-07-30T16:01:07.353Z,37.30
2018-07-30T16:03:35.177Z,38.00
2018-07-30T16:06:02.741Z,38.60
2018-07-30T16:08:30.314Z,37.40
2018-07-30T16:10:57.951Z,37.80
2018-07-30T16:13:25.467Z,37.90
2018-07-30T16:15:53.033Z,38.20
2018-07-30T16:18:20.624Z,38.60
2018-07-30T16:20:48.194Z,38.10
2018-07-30T16:23:15.805Z,38.30
2018-07-30T16:25:43.432Z,38.10
2018-07-30T16:28:10.976Z,39.30
2018-07-30T16:30:38.615Z,39.60
2018-07-30T16:33:06.216Z,39.50
2018-07-30T16:35:33.800Z,39.50
2018-07-30T16:38:01.487Z,39.80
2018-07-30T16:40:29.140Z,39.20
2018-07-30T16:42:56.767Z,39.50
2018-07-30T16:45:24.389Z,38.90
2018-07-30T16:47:51.985Z,38.10
2018-07-30T16:50:19.572Z,38.20
2018-07-30T16:52:47.127Z,38.40
2018-07-30T16:55:14.816Z,38.70
2018-07-30T16:57:42.426Z,38.50
2018-07-30T17:00:11.228Z,38.00
2018-07-30T17:02:39.246Z,39.00
2018-07-30T17:05:06.958Z,38.40
2018-07-30T17:07:34.518Z,39.10
2018-07-30T17:10:02.285Z,39.30
2018-07-30T17:12:29.876Z,39.20
2018-07-30T17:14:57.480Z,39.00
2018-07-30T17:17:25.581Z,38.60
2018-07-30T17:19:53.123Z,38.50
2018-07-30T17:22:20.687Z,38.60
2018-07-30T17:24:48.296Z,38.30
2018-07-30T17:27:15.908Z,38.40
2018-07-30T17:29:43.501Z,38.40
2018-07-30T17:32:11.125Z,38.60
2018-07-30T17:34:38.722Z,39.20
2018-07-30T17:37:06.499Z,39.70
2018-07-30T17:39:34.079Z,40.40
2018-07-30T17:42:01.680Z,40.00
2018-07-30T17:44:29.261Z,40.30
2018-07-30T17:46:56.881Z,40.40
2018-07-30T17:49:24.527Z,40.40
2018-07-30T17:51:52.107Z,40.30
2018-07-30T17:54:19.757Z,40.60
2018-07-30T17:56:47.359Z,40.80
2018-07-30T17:59:14.915Z,41.60
2018-07-30T18:01:42.535Z,41.30
2018-07-30T18:04:10.137Z,41.70
2018-07-30T18:06:37.725Z,41.90
2018-07-30T18:09:07.154Z,42.20
2018-07-30T18:11:34.802Z,42.40
2018-07-30T18:14:02.361Z,42.50
2018-07-30T18:16:30.032Z,42.50
2018-07-30T18:18:57.558Z,42.80
2018-07-30T18:21:25.254Z,43.00
2018-07-30T18:23:52.928Z,43.20
2018-07-30T18:26:20.794Z,43.20
2018-07-30T18:28:48.478Z,43.10
2018-07-30T18:31:16.122Z,43.30
2018-07-30T18:33:43.760Z,43.30
2018-07-30T18:36:11.386Z,43.60
2018-07-30T18:38:39.066Z,43.90
2018-07-30T18:41:06.908Z,43.90
2018-07-30T18:43:34.847Z,44.10
2018-07-30T18:46:02.479Z,44.70
2018-07-30T18:48:30.119Z,44.90
2018-07-30T18:50:57.698Z,44.80
2018-07-30T18:53:25.277Z,44.90
2018-07-30T18:55:52.979Z,45.10
2018-07-30T18:58:20.569Z,45.10
2018-07-30T19:00:48.189Z,45.50
2018-07-30T19:03:15.763Z,46.00
2018-07-30T19:05:43.390Z,46.20
2018-07-30T19:08:10.990Z,46.10
2018-07-30T19:10:38.649Z,46.40
2018-07-30T19:13:06.201Z,46.70
2018-07-30T19:15:33.945Z,46.90
2018-07-30T19:18:01.585Z,47.00
2018-07-30T19:20:29.145Z,47.30
2018-07-30T19:22:56.761Z,47.70
2018-07-30T19:25:24.369Z,47.80
2018-07-30T19:27:51.915Z,47.90
2018-07-30T19:30:19.575Z,47.90
2018-07-30T19:32:47.169Z,48.10
2018-07-30T19:35:14.801Z,48.20
2018-07-30T19:37:42.429Z,48.40
2018-07-30T19:40:10.012Z,48.50
2018-07-30T19:42:37.569Z,48.70
2018-07-30T19:45:05.965Z,49.40
2018-07-30T19:47:33.573Z,49.60
2018-07-30T19:50:01.485Z,49.70
2018-07-30T19:52:29.115Z,50.00
2018-07-30T19:54:56.713Z,50.10
2018-07-30T19:57:24.315Z,50.30
2018-07-30T19:59:51.933Z,50.40
2018-07-30T20:02:19.471Z,50.80
2018-07-30T20:04:47.345Z,51.50
2018-07-30T20:07:14.991Z,51.90
2018-07-30T20:09:42.627Z,51.70
2018-07-30T20:12:10.259Z,52.00
2018-07-30T20:14:37.846Z,52.50
2018-07-30T20:17:05.462Z,52.60
2018-07-30T20:22:00.514Z,52.90
2018-07-30T20:24:28.191Z,53.10
2018-07-30T20:26:55.730Z,53.80
2018-07-30T20:29:23.372Z,53.50
2018-07-30T20:31:50.944Z,53.90
2018-07-30T20:34:18.592Z,55.00
2018-07-30T20:36:46.306Z,55.20
2018-07-30T20:39:13.894Z,55.50
2018-07-30T20:41:41.540Z,55.50
2018-07-30T20:46:36.944Z,56.00
2018-07-30T20:49:04.576Z,56.20
2018-07-30T20:51:32.258Z,56.30
2018-07-30T20:53:59.870Z,56.90
2018-07-30T20:56:27.562Z,56.60
2018-07-30T20:58:56.611Z,57.40
2018-07-30T21:01:24.590Z,57.90
2018-07-30T21:03:52.409Z,58.50
2018-07-30T21:06:20.111Z,57.90
2018-07-30T21:08:47.750Z,57.90
2018-07-30T21:11:15.367Z,58.20
2018-07-30T21:13:42.964Z,58.20
2018-07-30T21:16:10.756Z,58.40
2018-07-30T21:18:38.577Z,58.50
2018-07-30T21:21:06.744Z,58.60
2018-07-30T21:23:34.502Z,59.40
2018-07-30T21:26:02.052Z,59.80
2018-07-30T21:28:29.703Z,59.70
2018-07-30T21:30:57.605Z,60.20
2018-07-30T21:33:25.238Z,61.00
2018-07-30T21:38:20.406Z,61.20
2018-07-30T21:40:48.389Z,61.00
2018-07-30T21:43:16.090Z,61.00
2018-07-30T21:45:43.660Z,61.70
2018-07-30T21:48:11.214Z,61.90
2018-07-30T21:50:39.030Z,62.20
2018-07-30T21:53:07.324Z,62.20
2018-07-30T21:55:34.917Z,61.20
2018-07-30T21:58:02.617Z,61.10
2018-07-30T22:00:30.335Z,61.10
2018-07-30T22:02:57.927Z,61.20
2018-07-30T22:05:25.668Z,60.90
2018-07-30T22:07:53.285Z,60.70
2018-07-30T22:10:22.730Z,60.80
2018-07-30T22:12:51.932Z,61.00
2018-07-30T22:15:19.896Z,61.10
2018-07-30T22:17:47.760Z,61.10
2018-07-30T22:20:15.412Z,61.30
2018-07-30T22:22:43.034Z,61.30
2018-07-30T22:25:10.622Z,61.70
2018-07-30T22:27:38.248Z,61.90
2018-07-30T22:30:07.877Z,61.70
2018-07-30T22:37:31.446Z,62.00
2018-07-30T22:39:59.025Z,62.20
2018-07-30T22:42:26.656Z,62.20
2018-07-30T22:44:54.336Z,62.20
2018-07-30T22:47:22.024Z,62.60
2018-07-30T22:49:49.744Z,62.40
2018-07-30T22:52:17.333Z,62.40
2018-07-30T22:54:45.221Z,62.60
2018-07-30T22:57:12.919Z,62.70
2018-07-30T22:59:40.556Z,62.90
2018-07-30T23:02:08.389Z,63.00
2018-07-30T23:04:36.116Z,63.40
2018-07-30T23:07:03.713Z,63.50
2018-07-30T23:09:31.250Z,63.70
2018-07-30T23:11:58.894Z,64.00
2018-07-30T23:14:26.450Z,64.20
2018-07-30T23:16:54.095Z,64.10
2018-07-30T23:19:21.731Z,64.00
2018-07-30T23:21:49.351Z,64.20
2018-07-30T23:24:16.959Z,64.20
2018-07-30T23:26:44.638Z,65.10
2018-07-30T23:29:12.258Z,64.50
2018-07-30T23:31:39.897Z,64.70
2018-07-30T23:34:07.488Z,64.80
2018-07-30T23:36:35.091Z,64.80
2018-07-30T23:39:02.849Z,65.30
2018-07-30T23:41:30.469Z,65.40
2018-07-30T23:43:58.036Z,65.70
2018-07-30T23:46:25.737Z,66.20
2018-07-30T23:48:53.477Z,66.30
2018-07-30T23:51:21.065Z,66.10
2018-07-30T23:53:48.722Z,66.80
2018-07-30T23:56:16.311Z,67.40
2018-07-30T23:58:43.939Z,67.70
